Portada
METAR-TAF:

METAR-TAF

Aeropuertos :

La Habana, Cuba

Aeropuerto Internacional de La Habana

latitud: 22-59N, longitud: 082-24W, altitud: 59 m

Observación

El informe se hizo hace 1 hora y 4 minutos, a las 18:55 UTC
Viento 14 kt del norte-noreste, variando entre norte y este-noreste
Temperatura 19°C
Humedad 49%
Presión 1023 hPa
Visibilidad 10 km o más
Escasas nubes a una altura de 2500 ft

METAR: MUHA 181855Z 03014KT 350V060 9999 FEW025 19/08 Q1023

Hora: 14:59 (19:59 UTC)

Pronóstico

El informe se hizo hace 2 horas y 59 minutos, a las 17:00 UTC
Pronóstico válido del 18 a las 18 UTC al 19 a las 18 UTC
Viento 15 kt del noreste
Visibilidad: 9000 m
Escasas nubes a una altura de 2000 ft
Evolucionando progresivamente
del 19 a las 01 UTC al 19 a las 03 UTC
Viento 5 kt del noreste

TAF: MUHA 181700Z 1818/1918 04015KT 9000 FEW020 BECMG 1901/1903 04005KT

Observaciones y pronósticos meteorológicos de más de 4000 aeropuertos (mensajes METAR y TAF).

Los puntos amarillos y rojos representan las estaciones disponibles.

Ponga el ratón en el punto deseado para ver el nombre de la estación.

Haga clic para ver las observaciones y los pronósticos meteorológicos.

Para cambiar el mapa : haga clic en los botones verdes con una cruz de color negro para hacer un zoom, en el botón verde con un guión para alejar o en las flechas verdes para mapas adyacentes.


METAR-TAF: